sensor_id;sensor_type;location;lat;lon;timestamp;temperature;humidity
61255;DHT22;47128;47.530;8.584;2022-09-06T00:01:26;17.50;99.90
61255;DHT22;47128;47.530;8.584;2022-09-06T00:03:51;17.40;99.90
61255;DHT22;47128;47.530;8.584;2022-09-06T00:06:18;17.30;99.90
61255;DHT22;47128;47.530;8.584;2022-09-06T00:08:45;17.20;99.90
61255;DHT22;47128;47.530;8.584;2022-09-06T00:11:11;17.30;99.90
61255;DHT22;47128;47.530;8.584;2022-09-06T00:13:37;17.30;99.90
61255;DHT22;47128;47.530;8.584;2022-09-06T00:16:15;17.30;99.90
61255;DHT22;47128;47.530;8.584;2022-09-06T00:18:41;17.30;99.90
61255;DHT22;47128;47.530;8.584;2022-09-06T00:21:37;17.20;99.90
61255;DHT22;47128;47.530;8.584;2022-09-06T00:24:02;17.20;99.90
61255;DHT22;47128;47.530;8.584;2022-09-06T00:26:28;17.20;99.90
61255;DHT22;47128;47.530;8.584;2022-09-06T00:28:54;17.20;99.90
61255;DHT22;47128;47.530;8.584;2022-09-06T00:31:22;17.20;99.90
61255;DHT22;47128;47.530;8.584;2022-09-06T00:33:48;17.10;99.90
61255;DHT22;47128;47.530;8.584;2022-09-06T00:36:14;17.10;99.90
61255;DHT22;47128;47.530;8.584;2022-09-06T00:38:41;17.00;99.90
61255;DHT22;47128;47.530;8.584;2022-09-06T00:41:09;17.00;99.90
61255;DHT22;47128;47.530;8.584;2022-09-06T00:43:35;17.10;99.90
61255;DHT22;47128;47.530;8.584;2022-09-06T00:46:02;17.10;99.90
61255;DHT22;47128;47.530;8.584;2022-09-06T00:48:28;17.00;99.90
61255;DHT22;47128;47.530;8.584;2022-09-06T00:50:57;17.10;99.90
61255;DHT22;47128;47.530;8.584;2022-09-06T00:53:25;17.10;99.90
61255;DHT22;47128;47.530;8.584;2022-09-06T00:55:51;17.00;99.90
61255;DHT22;47128;47.530;8.584;2022-09-06T00:58:17;17.10;99.90
61255;DHT22;47128;47.530;8.584;2022-09-06T01:00:43;17.20;99.90
61255;DHT22;47128;47.530;8.584;2022-09-06T01:03:12;17.20;99.90
61255;DHT22;47128;47.530;8.584;2022-09-06T01:08:58;17.10;99.90
61255;DHT22;47128;47.530;8.584;2022-09-06T01:31:08;17.20;99.90
61255;DHT22;47128;47.530;8.584;2022-09-06T01:36:26;17.20;99.90
61255;DHT22;47128;47.530;8.584;2022-09-06T01:38:52;17.30;99.90
61255;DHT22;47128;47.530;8.584;2022-09-06T01:41:18;17.20;99.90
61255;DHT22;47128;47.530;8.584;2022-09-06T01:43:46;17.20;99.90
61255;DHT22;47128;47.530;8.584;2022-09-06T01:46:28;17.20;99.90
61255;DHT22;47128;47.530;8.584;2022-09-06T02:00:02;17.30;99.90
61255;DHT22;47128;47.530;8.584;2022-09-06T02:02:40;17.40;99.90
61255;DHT22;47128;47.530;8.584;2022-09-06T02:05:37;17.50;99.90
61255;DHT22;47128;47.530;8.584;2022-09-06T02:08:10;17.60;99.90
61255;DHT22;47128;47.530;8.584;2022-09-06T02:11:04;17.70;99.90
61255;DHT22;47128;47.530;8.584;2022-09-06T02:13:45;17.60;99.90
61255;DHT22;47128;47.530;8.584;2022-09-06T02:16:17;17.50;99.90
61255;DHT22;47128;47.530;8.584;2022-09-06T02:19:06;17.50;99.90
61255;DHT22;47128;47.530;8.584;2022-09-06T02:21:37;17.60;99.90
61255;DHT22;47128;47.530;8.584;2022-09-06T02:24:06;17.70;99.90
61255;DHT22;47128;47.530;8.584;2022-09-06T02:26:39;17.70;99.90
61255;DHT22;47128;47.530;8.584;2022-09-06T02:29:06;17.80;99.90
61255;DHT22;47128;47.530;8.584;2022-09-06T02:31:38;17.90;99.90
61255;DHT22;47128;47.530;8.584;2022-09-06T02:34:07;17.90;99.90
61255;DHT22;47128;47.530;8.584;2022-09-06T02:36:35;18.00;99.90
61255;DHT22;47128;47.530;8.584;2022-09-06T02:39:01;18.00;99.90
61255;DHT22;47128;47.530;8.584;2022-09-06T02:41:28;17.90;99.90
61255;DHT22;47128;47.530;8.584;2022-09-06T02:43:55;17.90;99.90
61255;DHT22;47128;47.530;8.584;2022-09-06T02:46:20;18.00;99.90
61255;DHT22;47128;47.530;8.584;2022-09-06T02:48:48;18.00;99.90
61255;DHT22;47128;47.530;8.584;2022-09-06T02:51:14;18.00;99.90
61255;DHT22;47128;47.530;8.584;2022-09-06T02:53:40;18.10;99.90
61255;DHT22;47128;47.530;8.584;2022-09-06T02:56:06;18.10;99.90
61255;DHT22;47128;47.530;8.584;2022-09-06T02:58:31;18.10;99.90
61255;DHT22;47128;47.530;8.584;2022-09-06T03:00:57;18.10;99.90
61255;DHT22;47128;47.530;8.584;2022-09-06T03:03:23;18.10;99.90
61255;DHT22;47128;47.530;8.584;2022-09-06T03:05:50;18.10;99.90
61255;DHT22;47128;47.530;8.584;2022-09-06T03:08:18;18.10;99.90
61255;DHT22;47128;47.530;8.584;2022-09-06T03:10:52;18.00;99.90
61255;DHT22;47128;47.530;8.584;2022-09-06T03:13:17;18.10;99.90
61255;DHT22;47128;47.530;8.584;2022-09-06T03:15:43;18.10;99.90
61255;DHT22;47128;47.530;8.584;2022-09-06T03:18:09;18.00;99.90
61255;DHT22;47128;47.530;8.584;2022-09-06T03:20:35;18.10;99.90
61255;DHT22;47128;47.530;8.584;2022-09-06T03:23:01;18.10;99.90
61255;DHT22;47128;47.530;8.584;2022-09-06T03:25:28;18.00;99.90
61255;DHT22;47128;47.530;8.584;2022-09-06T03:27:53;18.00;99.90
61255;DHT22;47128;47.530;8.584;2022-09-06T03:30:19;18.00;99.90
61255;DHT22;47128;47.530;8.584;2022-09-06T03:32:45;17.90;99.90
61255;DHT22;47128;47.530;8.584;2022-09-06T03:35:11;17.80;99.90
61255;DHT22;47128;47.530;8.584;2022-09-06T03:37:37;17.90;99.90
61255;DHT22;47128;47.530;8.584;2022-09-06T03:40:06;17.80;99.90
61255;DHT22;47128;47.530;8.584;2022-09-06T03:42:32;17.80;99.90
61255;DHT22;47128;47.530;8.584;2022-09-06T03:44:57;17.70;99.90
61255;DHT22;47128;47.530;8.584;2022-09-06T03:47:23;17.60;99.90
61255;DHT22;47128;47.530;8.584;2022-09-06T03:49:48;17.60;99.90
61255;DHT22;47128;47.530;8.584;2022-09-06T03:52:16;17.60;99.90
61255;DHT22;47128;47.530;8.584;2022-09-06T03:54:47;17.60;99.90
61255;DHT22;47128;47.530;8.584;2022-09-06T03:57:13;17.70;99.90
61255;DHT22;47128;47.530;8.584;2022-09-06T03:59:39;17.60;99.90
61255;DHT22;47128;47.530;8.584;2022-09-06T04:02:04;17.60;99.90
61255;DHT22;47128;47.530;8.584;2022-09-06T04:04:30;17.60;99.90
61255;DHT22;47128;47.530;8.584;2022-09-06T04:06:56;17.60;99.90
61255;DHT22;47128;47.530;8.584;2022-09-06T04:09:22;17.50;99.90
61255;DHT22;47128;47.530;8.584;2022-09-06T04:11:48;17.50;99.90
61255;DHT22;47128;47.530;8.584;2022-09-06T04:14:14;17.50;99.90
61255;DHT22;47128;47.530;8.584;2022-09-06T04:16:39;17.40;99.90
61255;DHT22;47128;47.530;8.584;2022-09-06T04:19:05;17.40;99.90
61255;DHT22;47128;47.530;8.584;2022-09-06T04:21:30;17.40;99.90
61255;DHT22;47128;47.530;8.584;2022-09-06T04:23:56;17.50;99.90
61255;DHT22;47128;47.530;8.584;2022-09-06T04:26:21;17.50;99.90
61255;DHT22;47128;47.530;8.584;2022-09-06T04:28:47;17.50;99.90
61255;DHT22;47128;47.530;8.584;2022-09-06T04:31:13;17.40;99.90
61255;DHT22;47128;47.530;8.584;2022-09-06T04:33:39;17.40;99.90
61255;DHT22;47128;47.530;8.584;2022-09-06T04:36:07;17.40;99.90
61255;DHT22;47128;47.530;8.584;2022-09-06T04:38:41;17.40;99.90
61255;DHT22;47128;47.530;8.584;2022-09-06T04:41:08;17.30;99.90
61255;DHT22;47128;47.530;8.584;2022-09-06T04:43:34;17.40;99.90
61255;DHT22;47128;47.530;8.584;2022-09-06T04:46:05;17.40;99.90
61255;DHT22;47128;47.530;8.584;2022-09-06T04:48:30;17.30;99.90
61255;DHT22;47128;47.530;8.584;2022-09-06T04:50:56;17.30;99.90
61255;DHT22;47128;47.530;8.584;2022-09-06T04:53:21;17.30;99.90
61255;DHT22;47128;47.530;8.584;2022-09-06T04:55:47;17.40;99.90
61255;DHT22;47128;47.530;8.584;2022-09-06T04:58:13;17.30;99.90
61255;DHT22;47128;47.530;8.584;2022-09-06T05:00:38;17.30;99.90
61255;DHT22;47128;47.530;8.584;2022-09-06T05:03:06;17.30;99.90
61255;DHT22;47128;47.530;8.584;2022-09-06T05:05:31;17.20;99.90
61255;DHT22;47128;47.530;8.584;2022-09-06T05:07:57;17.20;99.90
61255;DHT22;47128;47.530;8.584;2022-09-06T05:10:24;17.20;99.90
61255;DHT22;47128;47.530;8.584;2022-09-06T05:12:51;17.20;99.90
61255;DHT22;47128;47.530;8.584;2022-09-06T05:15:18;17.30;99.90
61255;DHT22;47128;47.530;8.584;2022-09-06T05:17:43;17.40;99.90
61255;DHT22;47128;47.530;8.584;2022-09-06T05:20:10;17.40;99.90
61255;DHT22;47128;47.530;8.584;2022-09-06T05:22:36;17.50;99.90
61255;DHT22;47128;47.530;8.584;2022-09-06T05:25:02;17.50;99.90
61255;DHT22;47128;47.530;8.584;2022-09-06T05:27:28;17.50;99.90
61255;DHT22;47128;47.530;8.584;2022-09-06T05:29:53;17.50;99.90
61255;DHT22;47128;47.530;8.584;2022-09-06T05:32:19;17.50;99.90
61255;DHT22;47128;47.530;8.584;2022-09-06T05:34:45;17.50;99.90
61255;DHT22;47128;47.530;8.584;2022-09-06T05:37:10;17.40;99.90
61255;DHT22;47128;47.530;8.584;2022-09-06T05:39:36;17.40;99.90
61255;DHT22;47128;47.530;8.584;2022-09-06T05:42:02;17.50;99.90
61255;DHT22;47128;47.530;8.584;2022-09-06T05:44:35;17.40;99.90
61255;DHT22;47128;47.530;8.584;2022-09-06T05:47:01;17.40;99.90
61255;DHT22;47128;47.530;8.584;2022-09-06T05:49:30;17.40;99.90
61255;DHT22;47128;47.530;8.584;2022-09-06T05:51:56;17.40;99.90
61255;DHT22;47128;47.530;8.584;2022-09-06T05:54:22;17.40;99.90
61255;DHT22;47128;47.530;8.584;2022-09-06T05:56:48;17.50;99.90
61255;DHT22;47128;47.530;8.584;2022-09-06T05:59:14;17.60;99.90
61255;DHT22;47128;47.530;8.584;2022-09-06T06:02:06;17.70;99.90
61255;DHT22;47128;47.530;8.584;2022-09-06T06:06:58;18.00;99.90
61255;DHT22;47128;47.530;8.584;2022-09-06T06:09:24;17.90;99.90
61255;DHT22;47128;47.530;8.584;2022-09-06T06:11:49;18.00;99.90
61255;DHT22;47128;47.530;8.584;2022-09-06T06:14:15;18.10;99.90
61255;DHT22;47128;47.530;8.584;2022-09-06T06:16:41;18.10;99.90
61255;DHT22;47128;47.530;8.584;2022-09-06T06:19:06;18.10;99.90
61255;DHT22;47128;47.530;8.584;2022-09-06T06:21:34;18.10;99.90
61255;DHT22;47128;47.530;8.584;2022-09-06T06:24:04;18.00;99.90
61255;DHT22;47128;47.530;8.584;2022-09-06T06:26:33;18.00;99.90
61255;DHT22;47128;47.530;8.584;2022-09-06T06:29:06;18.00;99.90
61255;DHT22;47128;47.530;8.584;2022-09-06T06:31:46;18.00;99.90
61255;DHT22;47128;47.530;8.584;2022-09-06T06:34:13;18.00;99.90
61255;DHT22;47128;47.530;8.584;2022-09-06T06:40:09;18.10;99.90
61255;DHT22;47128;47.530;8.584;2022-09-06T06:42:39;18.10;99.90
61255;DHT22;47128;47.530;8.584;2022-09-06T06:45:08;18.10;99.90
61255;DHT22;47128;47.530;8.584;2022-09-06T06:47:36;18.10;99.90
61255;DHT22;47128;47.530;8.584;2022-09-06T06:50:06;18.20;99.90
61255;DHT22;47128;47.530;8.584;2022-09-06T06:52:36;18.20;99.90
61255;DHT22;47128;47.530;8.584;2022-09-06T06:55:04;18.40;99.90
61255;DHT22;47128;47.530;8.584;2022-09-06T06:57:34;18.60;99.90
61255;DHT22;47128;47.530;8.584;2022-09-06T07:00:10;18.80;99.90
61255;DHT22;47128;47.530;8.584;2022-09-06T07:02:36;19.00;99.90
61255;DHT22;47128;47.530;8.584;2022-09-06T07:05:04;19.10;99.90
61255;DHT22;47128;47.530;8.584;2022-09-06T07:07:31;19.10;99.90
61255;DHT22;47128;47.530;8.584;2022-09-06T07:09:58;19.10;99.90
61255;DHT22;47128;47.530;8.584;2022-09-06T07:12:32;19.20;99.90
61255;DHT22;47128;47.530;8.584;2022-09-06T07:15:02;19.20;99.90
61255;DHT22;47128;47.530;8.584;2022-09-06T07:17:28;19.20;99.90
61255;DHT22;47128;47.530;8.584;2022-09-06T07:19:56;19.20;99.90
61255;DHT22;47128;47.530;8.584;2022-09-06T07:22:25;19.10;99.90
61255;DHT22;47128;47.530;8.584;2022-09-06T07:25:06;19.10;99.90
61255;DHT22;47128;47.530;8.584;2022-09-06T07:27:39;19.20;99.90
61255;DHT22;47128;47.530;8.584;2022-09-06T07:30:14;19.30;99.90
61255;DHT22;47128;47.530;8.584;2022-09-06T07:32:44;19.40;99.90
61255;DHT22;47128;47.530;8.584;2022-09-06T07:35:16;19.50;99.90
61255;DHT22;47128;47.530;8.584;2022-09-06T07:37:59;19.60;99.90
61255;DHT22;47128;47.530;8.584;2022-09-06T07:40:27;19.70;99.90
61255;DHT22;47128;47.530;8.584;2022-09-06T07:43:05;19.80;99.90
61255;DHT22;47128;47.530;8.584;2022-09-06T07:45:35;20.00;99.90
61255;DHT22;47128;47.530;8.584;2022-09-06T07:48:08;20.20;99.90
61255;DHT22;47128;47.530;8.584;2022-09-06T07:50:33;20.20;99.90
61255;DHT22;47128;47.530;8.584;2022-09-06T07:53:06;20.30;99.90
61255;DHT22;47128;47.530;8.584;2022-09-06T07:55:35;20.30;99.90
61255;DHT22;47128;47.530;8.584;2022-09-06T07:58:02;20.30;99.90
61255;DHT22;47128;47.530;8.584;2022-09-06T08:00:32;20.10;99.90
61255;DHT22;47128;47.530;8.584;2022-09-06T08:03:00;20.00;99.90
61255;DHT22;47128;47.530;8.584;2022-09-06T08:05:25;19.90;99.90
61255;DHT22;47128;47.530;8.584;2022-09-06T08:07:54;19.80;99.90
61255;DHT22;47128;47.530;8.584;2022-09-06T08:10:37;19.80;99.90
61255;DHT22;47128;47.530;8.584;2022-09-06T08:13:04;19.80;99.90
61255;DHT22;47128;47.530;8.584;2022-09-06T08:15:39;19.70;99.90
61255;DHT22;47128;47.530;8.584;2022-09-06T08:18:05;19.70;99.90
61255;DHT22;47128;47.530;8.584;2022-09-06T08:20:34;19.60;99.90
61255;DHT22;47128;47.530;8.584;2022-09-06T08:23:01;19.70;99.90
61255;DHT22;47128;47.530;8.584;2022-09-06T08:25:31;19.70;99.90
61255;DHT22;47128;47.530;8.584;2022-09-06T08:27:56;19.70;99.90
61255;DHT22;47128;47.530;8.584;2022-09-06T08:30:26;19.60;99.90
61255;DHT22;47128;47.530;8.584;2022-09-06T08:33:00;19.40;99.90
61255;DHT22;47128;47.530;8.584;2022-09-06T08:35:27;19.40;99.90
61255;DHT22;47128;47.530;8.584;2022-09-06T08:37:56;19.30;99.90
61255;DHT22;47128;47.530;8.584;2022-09-06T08:40:27;19.40;99.90
61255;DHT22;47128;47.530;8.584;2022-09-06T08:42:54;19.20;99.90
61255;DHT22;47128;47.530;8.584;2022-09-06T08:45:25;19.20;99.90
61255;DHT22;47128;47.530;8.584;2022-09-06T08:47:56;19.20;99.90
61255;DHT22;47128;47.530;8.584;2022-09-06T08:50:27;19.10;99.90
61255;DHT22;47128;47.530;8.584;2022-09-06T08:55:48;19.10;99.90
61255;DHT22;47128;47.530;8.584;2022-09-06T09:01:11;19.10;99.90
61255;DHT22;47128;47.530;8.584;2022-09-06T09:03:42;19.30;99.90
61255;DHT22;47128;47.530;8.584;2022-09-06T09:06:10;19.50;99.90
61255;DHT22;47128;47.530;8.584;2022-09-06T09:08:46;19.70;99.90
61255;DHT22;47128;47.530;8.584;2022-09-06T09:11:22;19.90;99.90
61255;DHT22;47128;47.530;8.584;2022-09-06T09:14:18;19.90;99.90
61255;DHT22;47128;47.530;8.584;2022-09-06T09:16:52;20.10;99.90
61255;DHT22;47128;47.530;8.584;2022-09-06T09:19:22;20.20;99.90
61255;DHT22;47128;47.530;8.584;2022-09-06T09:21:57;20.20;99.90
61255;DHT22;47128;47.530;8.584;2022-09-06T09:24:37;20.30;99.90
61255;DHT22;47128;47.530;8.584;2022-09-06T09:27:07;20.40;99.90
61255;DHT22;47128;47.530;8.584;2022-09-06T09:32:42;20.60;99.90
61255;DHT22;47128;47.530;8.584;2022-09-06T09:35:39;20.70;99.90
61255;DHT22;47128;47.530;8.584;2022-09-06T09:38:11;20.70;99.90
61255;DHT22;47128;47.530;8.584;2022-09-06T09:40:52;20.90;99.90
61255;DHT22;47128;47.530;8.584;2022-09-06T09:43:53;20.80;99.90
61255;DHT22;47128;47.530;8.584;2022-09-06T09:49:26;20.90;99.90
61255;DHT22;47128;47.530;8.584;2022-09-06T09:52:11;20.80;99.90
61255;DHT22;47128;47.530;8.584;2022-09-06T09:54:43;20.80;99.90
61255;DHT22;47128;47.530;8.584;2022-09-06T09:57:13;20.90;99.90
61255;DHT22;47128;47.530;8.584;2022-09-06T10:02:33;21.40;99.90
61255;DHT22;47128;47.530;8.584;2022-09-06T10:05:19;21.40;99.90
61255;DHT22;47128;47.530;8.584;2022-09-06T10:07:52;21.80;99.90
61255;DHT22;47128;47.530;8.584;2022-09-06T10:13:24;22.00;99.90
61255;DHT22;47128;47.530;8.584;2022-09-06T10:16:53;21.90;99.90
61255;DHT22;47128;47.530;8.584;2022-09-06T10:19:41;21.70;99.90
61255;DHT22;47128;47.530;8.584;2022-09-06T10:22:27;21.60;99.90
61255;DHT22;47128;47.530;8.584;2022-09-06T10:25:20;21.60;99.90
61255;DHT22;47128;47.530;8.584;2022-09-06T10:28:24;21.60;99.90
61255;DHT22;47128;47.530;8.584;2022-09-06T10:42:49;21.90;99.90
61255;DHT22;47128;47.530;8.584;2022-09-06T10:48:08;22.70;99.90
61255;DHT22;47128;47.530;8.584;2022-09-06T10:53:28;23.40;99.90
61255;DHT22;47128;47.530;8.584;2022-09-06T10:56:08;23.70;99.90
61255;DHT22;47128;47.530;8.584;2022-09-06T10:58:49;24.10;99.90
61255;DHT22;47128;47.530;8.584;2022-09-06T11:04:23;24.20;99.90
61255;DHT22;47128;47.530;8.584;2022-09-06T11:06:58;24.00;99.90
61255;DHT22;47128;47.530;8.584;2022-09-06T11:09:42;23.80;99.90
61255;DHT22;47128;47.530;8.584;2022-09-06T11:12:21;23.50;99.90
61255;DHT22;47128;47.530;8.584;2022-09-06T11:14:53;23.40;99.90
61255;DHT22;47128;47.530;8.584;2022-09-06T11:20:34;23.30;99.90
61255;DHT22;47128;47.530;8.584;2022-09-06T11:23:04;23.40;99.90
61255;DHT22;47128;47.530;8.584;2022-09-06T11:28:18;23.30;99.90
61255;DHT22;47128;47.530;8.584;2022-09-06T11:30:47;23.20;99.90
61255;DHT22;47128;47.530;8.584;2022-09-06T11:33:27;23.00;99.90
61255;DHT22;47128;47.530;8.584;2022-09-06T11:36:33;22.80;99.90
61255;DHT22;47128;47.530;8.584;2022-09-06T11:39:09;23.00;99.90
61255;DHT22;47128;47.530;8.584;2022-09-06T11:41:42;22.60;99.90
61255;DHT22;47128;47.530;8.584;2022-09-06T11:44:10;22.50;99.90
61255;DHT22;47128;47.530;8.584;2022-09-06T11:49:31;22.50;99.90
61255;DHT22;47128;47.530;8.584;2022-09-06T11:52:00;22.30;99.90
61255;DHT22;47128;47.530;8.584;2022-09-06T11:54:37;22.30;99.90
61255;DHT22;47128;47.530;8.584;2022-09-06T11:57:24;22.20;99.90
61255;DHT22;47128;47.530;8.584;2022-09-06T12:00:03;22.00;99.90
61255;DHT22;47128;47.530;8.584;2022-09-06T12:02:40;22.00;99.90
61255;DHT22;47128;47.530;8.584;2022-09-06T12:05:14;21.80;99.90
61255;DHT22;47128;47.530;8.584;2022-09-06T12:11:03;21.60;99.90
61255;DHT22;47128;47.530;8.584;2022-09-06T12:13:46;21.70;99.90
61255;DHT22;47128;47.530;8.584;2022-09-06T12:16:20;21.90;99.90
61255;DHT22;47128;47.530;8.584;2022-09-06T12:21:45;21.60;99.90
61255;DHT22;47128;47.530;8.584;2022-09-06T12:27:14;21.70;99.90
61255;DHT22;47128;47.530;8.584;2022-09-06T12:29:52;21.60;99.90
61255;DHT22;47128;47.530;8.584;2022-09-06T12:32:28;21.60;99.90
61255;DHT22;47128;47.530;8.584;2022-09-06T12:34:55;21.60;99.90
61255;DHT22;47128;47.530;8.584;2022-09-06T12:37:34;21.60;99.90
61255;DHT22;47128;47.530;8.584;2022-09-06T12:40:07;21.50;99.90
61255;DHT22;47128;47.530;8.584;2022-09-06T12:42:39;21.40;99.90
61255;DHT22;47128;47.530;8.584;2022-09-06T12:45:06;21.20;99.90
61255;DHT22;47128;47.530;8.584;2022-09-06T12:47:38;21.00;99.90
61255;DHT22;47128;47.530;8.584;2022-09-06T12:50:20;20.90;99.90
61255;DHT22;47128;47.530;8.584;2022-09-06T12:52:55;20.70;99.90
61255;DHT22;47128;47.530;8.584;2022-09-06T12:55:26;20.50;99.90
61255;DHT22;47128;47.530;8.584;2022-09-06T12:57:57;20.40;99.90
61255;DHT22;47128;47.530;8.584;2022-09-06T13:00:24;20.30;99.90
61255;DHT22;47128;47.530;8.584;2022-09-06T13:05:45;20.10;99.90
61255;DHT22;47128;47.530;8.584;2022-09-06T13:08:23;20.00;99.90
61255;DHT22;47128;47.530;8.584;2022-09-06T13:10:53;19.70;99.90
61255;DHT22;47128;47.530;8.584;2022-09-06T13:13:24;19.70;99.90
61255;DHT22;47128;47.530;8.584;2022-09-06T13:15:52;19.70;99.90
61255;DHT22;47128;47.530;8.584;2022-09-06T13:18:23;19.80;99.90
61255;DHT22;47128;47.530;8.584;2022-09-06T13:21:08;19.90;99.90
61255;DHT22;47128;47.530;8.584;2022-09-06T13:23:48;20.00;99.90
61255;DHT22;47128;47.530;8.584;2022-09-06T13:26:14;20.10;99.90
61255;DHT22;47128;47.530;8.584;2022-09-06T13:29:07;20.20;99.90
61255;DHT22;47128;47.530;8.584;2022-09-06T13:31:34;20.40;99.90
61255;DHT22;47128;47.530;8.584;2022-09-06T13:34:00;20.50;99.90
61255;DHT22;47128;47.530;8.584;2022-09-06T13:36:48;20.70;99.90
61255;DHT22;47128;47.530;8.584;2022-09-06T13:39:37;20.90;99.90
61255;DHT22;47128;47.530;8.584;2022-09-06T13:44:33;20.90;99.90
61255;DHT22;47128;47.530;8.584;2022-09-06T13:47:02;20.80;99.90
61255;DHT22;47128;47.530;8.584;2022-09-06T13:49:31;20.80;99.90
61255;DHT22;47128;47.530;8.584;2022-09-06T13:52:02;20.90;99.90
61255;DHT22;47128;47.530;8.584;2022-09-06T13:54:29;21.00;99.90
61255;DHT22;47128;47.530;8.584;2022-09-06T13:56:55;21.10;99.90
61255;DHT22;47128;47.530;8.584;2022-09-06T13:59:22;21.10;99.90
61255;DHT22;47128;47.530;8.584;2022-09-06T14:01:58;21.30;99.90
61255;DHT22;47128;47.530;8.584;2022-09-06T14:04:28;21.00;99.90
61255;DHT22;47128;47.530;8.584;2022-09-06T14:06:54;21.10;99.90
61255;DHT22;47128;47.530;8.584;2022-09-06T14:09:21;21.20;99.90
61255;DHT22;47128;47.530;8.584;2022-09-06T14:12:00;21.00;99.90
61255;DHT22;47128;47.530;8.584;2022-09-06T14:14:26;21.10;99.90
61255;DHT22;47128;47.530;8.584;2022-09-06T14:16:52;21.10;99.90
61255;DHT22;47128;47.530;8.584;2022-09-06T14:19:19;21.20;99.90
61255;DHT22;47128;47.530;8.584;2022-09-06T14:21:45;21.20;99.90
61255;DHT22;47128;47.530;8.584;2022-09-06T14:24:11;21.20;99.90
61255;DHT22;47128;47.530;8.584;2022-09-06T14:26:37;21.20;99.90
61255;DHT22;47128;47.530;8.584;2022-09-06T14:29:07;21.20;99.90
61255;DHT22;47128;47.530;8.584;2022-09-06T14:31:33;21.20;99.90
61255;DHT22;47128;47.530;8.584;2022-09-06T14:34:02;21.20;99.90
61255;DHT22;47128;47.530;8.584;2022-09-06T14:36:30;21.30;99.90
61255;DHT22;47128;47.530;8.584;2022-09-06T14:38:58;21.10;99.90
61255;DHT22;47128;47.530;8.584;2022-09-06T14:41:29;21.00;99.90
61255;DHT22;47128;47.530;8.584;2022-09-06T14:43:56;20.80;99.90
61255;DHT22;47128;47.530;8.584;2022-09-06T14:46:24;20.90;99.90
61255;DHT22;47128;47.530;8.584;2022-09-06T14:49:05;20.80;99.90
61255;DHT22;47128;47.530;8.584;2022-09-06T14:51:33;20.70;99.90
61255;DHT22;47128;47.530;8.584;2022-09-06T14:54:08;20.60;99.90
61255;DHT22;47128;47.530;8.584;2022-09-06T14:56:35;20.70;99.90
61255;DHT22;47128;47.530;8.584;2022-09-06T14:59:03;20.80;99.90
61255;DHT22;47128;47.530;8.584;2022-09-06T15:01:30;20.70;99.90
61255;DHT22;47128;47.530;8.584;2022-09-06T15:04:02;20.70;99.90
61255;DHT22;47128;47.530;8.584;2022-09-06T15:06:30;20.50;99.90
61255;DHT22;47128;47.530;8.584;2022-09-06T15:08:57;20.50;99.90
61255;DHT22;47128;47.530;8.584;2022-09-06T15:11:31;20.40;99.90
61255;DHT22;47128;47.530;8.584;2022-09-06T15:14:02;20.40;99.90
61255;DHT22;47128;47.530;8.584;2022-09-06T15:16:28;20.40;99.90
61255;DHT22;47128;47.530;8.584;2022-09-06T15:18:54;20.30;99.90
61255;DHT22;47128;47.530;8.584;2022-09-06T15:21:20;20.40;99.90
61255;DHT22;47128;47.530;8.584;2022-09-06T15:23:46;20.80;99.90
61255;DHT22;47128;47.530;8.584;2022-09-06T15:26:13;20.70;99.90
61255;DHT22;47128;47.530;8.584;2022-09-06T15:28:41;20.60;99.90
61255;DHT22;47128;47.530;8.584;2022-09-06T15:31:09;20.80;99.90
61255;DHT22;47128;47.530;8.584;2022-09-06T15:33:37;20.90;99.90
61255;DHT22;47128;47.530;8.584;2022-09-06T15:36:04;20.80;99.90
61255;DHT22;47128;47.530;8.584;2022-09-06T15:38:35;20.70;99.90
61255;DHT22;47128;47.530;8.584;2022-09-06T15:41:09;20.60;99.90
61255;DHT22;47128;47.530;8.584;2022-09-06T15:43:37;20.70;99.90
61255;DHT22;47128;47.530;8.584;2022-09-06T15:46:05;20.80;99.90
61255;DHT22;47128;47.530;8.584;2022-09-06T15:48:40;20.50;99.90
61255;DHT22;47128;47.530;8.584;2022-09-06T15:51:06;20.40;99.90
61255;DHT22;47128;47.530;8.584;2022-09-06T15:53:32;20.30;99.90
61255;DHT22;47128;47.530;8.584;2022-09-06T15:55:58;20.30;99.90
61255;DHT22;47128;47.530;8.584;2022-09-06T15:58:26;20.30;99.90
61255;DHT22;47128;47.530;8.584;2022-09-06T16:01:12;20.30;99.90
61255;DHT22;47128;47.530;8.584;2022-09-06T16:03:44;20.30;99.90
61255;DHT22;47128;47.530;8.584;2022-09-06T16:06:12;20.30;99.90
61255;DHT22;47128;47.530;8.584;2022-09-06T16:08:40;20.30;99.90
61255;DHT22;47128;47.530;8.584;2022-09-06T16:11:11;20.40;99.90
61255;DHT22;47128;47.530;8.584;2022-09-06T16:13:38;20.40;99.90
61255;DHT22;47128;47.530;8.584;2022-09-06T16:16:07;20.40;99.90
61255;DHT22;47128;47.530;8.584;2022-09-06T16:18:35;20.40;99.90
61255;DHT22;47128;47.530;8.584;2022-09-06T16:21:10;20.50;99.90
61255;DHT22;47128;47.530;8.584;2022-09-06T16:23:37;20.40;99.90
61255;DHT22;47128;47.530;8.584;2022-09-06T16:26:08;20.50;99.90
61255;DHT22;47128;47.530;8.584;2022-09-06T16:28:36;20.40;99.90
61255;DHT22;47128;47.530;8.584;2022-09-06T16:31:07;20.50;99.90
61255;DHT22;47128;47.530;8.584;2022-09-06T16:34:17;20.60;99.90
61255;DHT22;47128;47.530;8.584;2022-09-06T16:37:00;20.70;99.90
61255;DHT22;47128;47.530;8.584;2022-09-06T16:39:32;20.70;99.90
61255;DHT22;47128;47.530;8.584;2022-09-06T16:42:09;20.60;99.90
61255;DHT22;47128;47.530;8.584;2022-09-06T16:44:35;20.80;99.90
61255;DHT22;47128;47.530;8.584;2022-09-06T16:47:02;20.70;99.90
61255;DHT22;47128;47.530;8.584;2022-09-06T16:49:31;20.60;99.90
61255;DHT22;47128;47.530;8.584;2022-09-06T16:51:57;20.70;99.90
61255;DHT22;47128;47.530;8.584;2022-09-06T16:54:23;20.70;99.90
61255;DHT22;47128;47.530;8.584;2022-09-06T16:56:54;20.60;99.90
61255;DHT22;47128;47.530;8.584;2022-09-06T16:59:20;20.80;99.90
61255;DHT22;47128;47.530;8.584;2022-09-06T17:01:46;20.60;99.90
61255;DHT22;47128;47.530;8.584;2022-09-06T17:04:12;20.60;99.90
61255;DHT22;47128;47.530;8.584;2022-09-06T17:06:38;20.70;99.90
61255;DHT22;47128;47.530;8.584;2022-09-06T17:09:18;20.60;99.90
61255;DHT22;47128;47.530;8.584;2022-09-06T17:11:44;20.60;99.90
61255;DHT22;47128;47.530;8.584;2022-09-06T17:14:11;20.90;99.90
61255;DHT22;47128;47.530;8.584;2022-09-06T17:16:37;20.60;99.90
61255;DHT22;47128;47.530;8.584;2022-09-06T17:19:21;20.50;99.90
61255;DHT22;47128;47.530;8.584;2022-09-06T17:21:50;20.50;99.90
61255;DHT22;47128;47.530;8.584;2022-09-06T17:24:29;20.40;99.90
61255;DHT22;47128;47.530;8.584;2022-09-06T17:26:58;20.30;99.90
61255;DHT22;47128;47.530;8.584;2022-09-06T17:29:24;20.20;99.90
61255;DHT22;47128;47.530;8.584;2022-09-06T17:31:50;20.20;99.90
61255;DHT22;47128;47.530;8.584;2022-09-06T17:34:16;20.00;99.90
61255;DHT22;47128;47.530;8.584;2022-09-06T17:36:42;19.80;99.90